createdAt,value
2019-02-17T00:04:37.135Z,0.4
2019-02-17T00:09:39.801Z,0.4
2019-02-17T00:14:42.056Z,0.4
2019-02-17T00:19:44.518Z,0.4
2019-02-17T00:24:47.026Z,0.3
2019-02-17T00:29:49.433Z,0.3
2019-02-17T00:34:51.891Z,0.3
2019-02-17T00:39:54.329Z,0
2019-02-17T00:44:56.800Z,0
2019-02-17T00:49:59.268Z,0
2019-02-17T00:55:01.752Z,0
2019-02-17T01:00:04.192Z,0
2019-02-17T01:05:06.642Z,0
2019-02-17T01:10:09.316Z,0
2019-02-17T01:15:11.553Z,0
2019-02-17T01:20:14.041Z,0
2019-02-17T01:25:16.509Z,0
2019-02-17T01:30:19.070Z,0
2019-02-17T01:35:21.513Z,0
2019-02-17T01:40:23.943Z,0
2019-02-17T01:45:26.450Z,0
2019-02-17T01:50:28.903Z,0
2019-02-17T01:55:31.386Z,0
2019-02-17T02:00:33.869Z,0
2019-02-17T02:05:36.345Z,0
2019-02-17T02:10:38.822Z,0
2019-02-17T02:15:41.308Z,0
2019-02-17T02:20:43.813Z,0
2019-02-17T02:25:46.368Z,0
2019-02-17T02:30:48.743Z,0
2019-02-17T02:35:51.253Z,0
2019-02-17T02:40:53.728Z,0
2019-02-17T02:45:56.215Z,0
2019-02-17T02:50:58.744Z,0
2019-02-17T02:56:01.148Z,0
2019-02-17T03:01:03.705Z,0
2019-02-17T03:06:07.030Z,0
2019-02-17T03:11:08.580Z,0
2019-02-17T03:16:11.107Z,0
2019-02-17T03:21:13.519Z,0
2019-02-17T03:26:16.338Z,0
2019-02-17T03:31:18.496Z,0
2019-02-17T03:36:20.971Z,0
2019-02-17T03:41:23.449Z,0
2019-02-17T03:46:25.927Z,0
2019-02-17T03:51:28.412Z,0
2019-02-17T03:56:30.950Z,0
2019-02-17T04:01:33.367Z,0
2019-02-17T04:06:35.873Z,0
2019-02-17T04:11:38.330Z,0
2019-02-17T04:16:40.870Z,0
2019-02-17T04:21:43.596Z,0
2019-02-17T04:26:45.828Z,0
2019-02-17T04:31:48.246Z,0
2019-02-17T04:36:50.738Z,0
2019-02-17T04:41:53.218Z,0
2019-02-17T04:46:55.754Z,0
2019-02-17T04:51:58.431Z,0
2019-02-17T04:57:00.738Z,0
2019-02-17T05:02:03.267Z,0
2019-02-17T05:07:05.635Z,0
2019-02-17T05:12:08.092Z,0
2019-02-17T05:17:10.642Z,0
2019-02-17T05:22:13.091Z,0
2019-02-17T05:27:15.573Z,0
2019-02-17T05:32:18.038Z,0
2019-02-17T05:37:20.550Z,0
2019-02-17T05:42:23.018Z,0
2019-02-17T05:47:25.479Z,0
2019-02-17T05:52:27.975Z,0
2019-02-17T05:57:30.437Z,0
2019-02-17T06:02:32.926Z,0
2019-02-17T06:07:35.410Z,0
2019-02-17T06:12:37.877Z,0
2019-02-17T06:17:40.415Z,0
2019-02-17T06:22:42.824Z,0
2019-02-17T06:27:45.331Z,0
2019-02-17T06:32:47.816Z,0
2019-02-17T06:37:50.307Z,0
2019-02-17T06:42:52.768Z,0
2019-02-17T06:47:55.295Z,0
2019-02-17T06:52:57.767Z,0
2019-02-17T06:58:00.186Z,0
2019-02-17T07:03:02.678Z,0
2019-02-17T07:08:05.196Z,0
2019-02-17T07:13:07.626Z,0
2019-02-17T07:18:10.145Z,0
2019-02-17T07:23:12.590Z,0
2019-02-17T07:28:15.132Z,0
2019-02-17T07:33:17.624Z,0
2019-02-17T07:38:20.038Z,0
2019-02-17T07:43:22.555Z,0
2019-02-17T07:48:25.023Z,0
2019-02-17T07:53:27.489Z,0
2019-02-17T07:58:29.987Z,0
2019-02-17T08:03:32.525Z,0
2019-02-17T08:08:34.917Z,0
2019-02-17T08:13:37.408Z,0
2019-02-17T08:18:39.913Z,0
2019-02-17T08:23:42.360Z,0
2019-02-17T08:28:44.847Z,0
2019-02-17T08:33:47.340Z,0
2019-02-17T08:38:49.840Z,0
2019-02-17T08:43:52.337Z,0
2019-02-17T08:48:54.837Z,0
2019-02-17T08:53:57.370Z,0
2019-02-17T08:58:59.855Z,0
2019-02-17T09:04:02.399Z,0
2019-02-17T09:09:04.856Z,0
2019-02-17T09:14:07.321Z,33.3
2019-02-17T09:19:09.764Z,33.3
2019-02-17T09:24:12.218Z,34.2
2019-02-17T09:29:14.683Z,34.7
2019-02-17T09:34:17.244Z,35.3
2019-02-17T09:39:19.634Z,35.9
2019-02-17T09:44:22.077Z,36.5
2019-02-17T09:49:24.537Z,36.8
2019-02-17T09:54:27.134Z,37.5
2019-02-17T09:59:29.441Z,38.2
2019-02-17T10:04:31.916Z,38.7
2019-02-17T10:09:34.359Z,38.9
2019-02-17T10:14:36.834Z,39
2019-02-17T10:19:39.311Z,39.4
2019-02-17T10:24:41.761Z,39.8
2019-02-17T10:29:44.231Z,39.9
2019-02-17T10:34:46.676Z,40.1
2019-02-17T10:39:49.180Z,40.6
2019-02-17T10:44:51.601Z,41.2
2019-02-17T10:49:54.078Z,41.8
2019-02-17T10:54:56.508Z,42
2019-02-17T10:59:58.981Z,42.3
2019-02-17T11:05:06.747Z,42.4
2019-02-17T11:10:03.894Z,42.7
2019-02-17T11:15:06.359Z,42.6
2019-02-17T11:20:08.953Z,42
2019-02-17T11:25:11.312Z,41.5
2019-02-17T11:30:13.757Z,41.4
2019-02-17T11:35:16.273Z,40.8
2019-02-17T11:40:18.674Z,40.4
2019-02-17T11:45:21.153Z,40.4
2019-02-17T11:50:23.618Z,40.4
2019-02-17T11:55:26.070Z,40.9
2019-02-17T12:00:28.544Z,40.9
2019-02-17T12:05:30.963Z,40.5
2019-02-17T12:10:33.441Z,40.1
2019-02-17T12:15:35.907Z,39.8
2019-02-17T12:20:38.351Z,39.3
2019-02-17T12:25:40.807Z,38.8
2019-02-17T12:30:43.266Z,38.3
2019-02-17T12:35:45.737Z,38.4
2019-02-17T12:40:48.217Z,38.3
2019-02-17T12:45:50.661Z,37.7
2019-02-17T12:50:53.169Z,37.4
2019-02-17T12:55:55.644Z,37.3
2019-02-17T13:00:58.099Z,36.9
2019-02-17T13:06:00.495Z,36.3
2019-02-17T13:11:02.990Z,35.2
2019-02-17T13:16:05.529Z,33.9
2019-02-17T13:21:07.936Z,32.6
2019-02-17T13:26:10.331Z,31.3
2019-02-17T13:31:12.869Z,30.5
2019-02-17T13:36:15.246Z,30.2
2019-02-17T13:41:17.708Z,30.1
2019-02-17T13:46:20.250Z,29.7
2019-02-17T13:51:22.624Z,28.9
2019-02-17T13:56:25.112Z,27.7
2019-02-17T14:01:27.545Z,26.7
2019-02-17T14:06:30.056Z,25.8
2019-02-17T14:11:32.567Z,24.9
2019-02-17T14:16:34.941Z,24.3
2019-02-17T14:21:37.391Z,23.7
2019-02-17T14:26:39.870Z,23.1
2019-02-17T14:31:42.296Z,22.7
2019-02-17T14:36:44.767Z,22.3
2019-02-17T14:41:47.320Z,21.8
2019-02-17T14:46:49.678Z,21.3
2019-02-17T14:51:52.224Z,20.9
2019-02-17T14:56:54.623Z,20.6
2019-02-17T15:01:57.050Z,20.1
2019-02-17T15:06:59.536Z,19.7
2019-02-17T15:12:02.021Z,19.3
2019-02-17T15:17:04.433Z,19
2019-02-17T15:22:06.941Z,18.6
2019-02-17T15:27:09.361Z,18.2
2019-02-17T15:32:11.918Z,17.7
2019-02-17T15:37:14.257Z,17.2
2019-02-17T15:42:16.711Z,16.7
2019-02-17T15:47:19.188Z,16.1
2019-02-17T15:52:21.621Z,15.5
2019-02-17T15:57:24.143Z,14.8
2019-02-17T16:02:26.564Z,13.9
2019-02-17T16:07:29.038Z,13.2
2019-02-17T16:12:31.475Z,12.6
2019-02-17T16:17:33.974Z,12.1
2019-02-17T16:22:36.378Z,11.6
2019-02-17T16:27:38.852Z,11.2
2019-02-17T16:32:41.308Z,10.9
2019-02-17T16:37:43.771Z,10.6
2019-02-17T16:42:46.296Z,10.3
2019-02-17T16:47:48.963Z,9.9
2019-02-17T16:52:51.131Z,9.5
2019-02-17T16:57:53.602Z,9.2
2019-02-17T17:02:56.070Z,8.9
2019-02-17T17:07:58.495Z,8.6
2019-02-17T17:13:00.946Z,8.4
2019-02-17T17:18:03.487Z,8.2
2019-02-17T17:23:05.929Z,7.9
2019-02-17T17:28:08.343Z,7.6
2019-02-17T17:33:10.811Z,7.4
2019-02-17T17:38:13.261Z,7.1
2019-02-17T17:43:15.692Z,0
2019-02-17T17:48:18.185Z,6.7
2019-02-17T17:53:20.604Z,6.5
2019-02-17T17:58:23.064Z,6.4
2019-02-17T18:03:25.592Z,6.3
2019-02-17T18:08:27.983Z,6.2
2019-02-17T18:13:30.494Z,6.1
2019-02-17T18:18:32.897Z,6
2019-02-17T18:23:35.356Z,5.9
2019-02-17T18:28:37.838Z,5.7
2019-02-17T18:33:40.287Z,5.6
2019-02-17T18:38:42.717Z,5.5
2019-02-17T18:43:45.188Z,5.4
2019-02-17T18:48:47.633Z,5.3
2019-02-17T18:53:50.088Z,5.2
2019-02-17T18:58:52.847Z,5.2
2019-02-17T19:03:55.147Z,5.1
2019-02-17T19:08:57.458Z,5
2019-02-17T19:13:59.928Z,4.8
2019-02-17T19:19:02.450Z,4.7
2019-02-17T19:24:04.869Z,4.6
2019-02-17T19:29:07.297Z,4.5
2019-02-17T19:34:09.768Z,4.4
2019-02-17T19:39:12.292Z,4.4
2019-02-17T19:44:14.736Z,4.3
2019-02-17T19:49:17.156Z,4.3
2019-02-17T19:54:19.624Z,4.1
2019-02-17T19:59:22.125Z,4
2019-02-17T20:04:24.566Z,3.9
2019-02-17T20:09:26.989Z,3.9
2019-02-17T20:14:31.554Z,3.8
2019-02-17T20:19:31.918Z,3.8
2019-02-17T20:24:34.383Z,3.7
2019-02-17T20:29:37.147Z,3.8
2019-02-17T20:34:39.321Z,3.7
2019-02-17T20:39:41.903Z,3.7
2019-02-17T20:44:44.305Z,3.7
2019-02-17T20:49:46.714Z,3.7
2019-02-17T20:54:49.172Z,3.7
2019-02-17T20:59:51.632Z,3.6
2019-02-17T21:04:54.127Z,3.5
2019-02-17T21:09:56.568Z,3.4
2019-02-17T21:14:59.155Z,3.3
2019-02-17T21:20:01.545Z,3.1
2019-02-17T21:25:03.963Z,3
2019-02-17T21:30:06.444Z,3
2019-02-17T21:35:08.906Z,3
2019-02-17T21:40:11.368Z,2.9
2019-02-17T21:45:13.834Z,2.9
2019-02-17T21:50:16.344Z,2.9
2019-02-17T21:55:18.755Z,2.8
2019-02-17T22:00:21.295Z,2.8
2019-02-17T22:05:23.725Z,2.8
2019-02-17T22:10:26.149Z,2.8
2019-02-17T22:15:28.634Z,2.7
2019-02-17T22:20:31.131Z,2.7
2019-02-17T22:25:33.537Z,2.6
2019-02-17T22:30:36.021Z,2.6
2019-02-17T22:35:38.577Z,2.5
2019-02-17T22:40:40.934Z,2.4
2019-02-17T22:45:43.389Z,2.3
2019-02-17T22:50:45.856Z,2.2
2019-02-17T22:55:48.353Z,2.2
2019-02-17T23:00:50.804Z,2.1
2019-02-17T23:05:53.268Z,2.1
2019-02-17T23:10:55.702Z,2
2019-02-17T23:15:58.180Z,1.9
2019-02-17T23:21:00.661Z,1.8
2019-02-17T23:26:03.393Z,1.7
2019-02-17T23:31:05.562Z,1.6
2019-02-17T23:36:08.022Z,1.6
2019-02-17T23:41:10.483Z,1.5
2019-02-17T23:46:12.935Z,1.4
2019-02-17T23:51:15.397Z,1.3
2019-02-17T23:56:17.845Z,1.3
